Time;durP1;ratioP1;P1;durP2;ratioP2;P2;SDS_P1;SDS_P2;PMS_P1;PMS_P2;Temp;Humidity;BMP_temperature;BMP_pressure;BME280_temperature;BME280_humidity;BME280_pressure;Samples;Min_cycle;Max_cycle;Signal;HPM_P1;HPM_P2
2021/06/29 00:01:37;;;;;;;16.38;13.38;;;17.80;94.10;;;;;;5049187;28;20133;-47
2021/06/29 00:04:03;;;;;;;18.25;13.18;;;17.80;93.90;;;;;;5045655;28;20037;-50
2021/06/29 00:06:29;;;;;;;20.13;13.35;;;17.70;93.80;;;;;;5042352;28;20740;-50
2021/06/29 00:08:55;;;;;;;21.42;13.38;;;17.60;93.90;;;;;;5045043;28;20047;-48
2021/06/29 00:11:22;;;;;;;16.83;13.15;;;17.60;93.90;;;;;;5058175;28;20123;-48
2021/06/29 00:13:49;;;;;;;18.80;13.20;;;17.60;94.00;;;;;;5054481;28;20037;-50
2021/06/29 00:16:15;;;;;;;18.40;12.98;;;17.60;94.00;;;;;;5028715;28;20512;-48
2021/06/29 00:18:41;;;;;;;19.75;13.45;;;17.60;94.00;;;;;;5043921;28;20464;-48
2021/06/29 00:21:07;;;;;;;22.42;14.55;;;17.50;94.00;;;;;;5037992;28;20037;-47
2021/06/29 00:23:37;;;;;;;16.85;12.43;;;17.50;94.00;;;;;;5035507;28;20037;-47
2021/06/29 00:26:07;;;;;;;19.42;13.13;;;17.50;94.00;;;;;;5039469;28;20048;-50
2021/06/29 00:28:34;;;;;;;19.02;12.57;;;17.50;94.00;;;;;;5049153;28;20046;-48
2021/06/29 00:31:01;;;;;;;19.83;12.55;;;17.40;94.00;;;;;;5051692;28;20029;-49
2021/06/29 00:33:27;;;;;;;21.75;12.82;;;17.40;94.00;;;;;;5036218;28;20045;-47
2021/06/29 00:35:53;;;;;;;21.70;12.48;;;17.40;94.00;;;;;;5043794;28;20046;-47
2021/06/29 00:38:19;;;;;;;20.60;12.27;;;17.40;93.90;;;;;;5053161;28;20053;-47
2021/06/29 00:40:45;;;;;;;16.98;11.80;;;17.30;93.90;;;;;;5043961;28;20140;-49
2021/06/29 00:43:10;;;;;;;20.50;11.85;;;17.30;93.90;;;;;;5042441;28;20060;-48
2021/06/29 00:45:36;;;;;;;17.95;11.98;;;17.30;94.00;;;;;;5049618;28;20073;-50
2021/06/29 00:48:02;;;;;;;17.88;12.65;;;17.30;94.00;;;;;;5044004;28;20486;-52
2021/06/29 00:50:28;;;;;;;20.38;12.10;;;17.30;94.00;;;;;;5050803;28;20037;-49
2021/06/29 00:52:54;;;;;;;20.65;12.10;;;17.30;94.10;;;;;;5045792;28;20060;-50
2021/06/29 00:55:20;;;;;;;20.13;12.27;;;17.30;94.00;;;;;;5042609;28;20045;-52
2021/06/29 00:57:51;;;;;;;17.08;11.10;;;17.30;94.10;;;;;;5049449;28;20049;-48
2021/06/29 01:00:17;;;;;;;16.48;11.23;;;17.20;94.00;;;;;;5036369;28;20052;-46
2021/06/29 01:02:43;;;;;;;19.90;10.70;;;17.20;94.10;;;;;;5046413;28;20053;-51
2021/06/29 01:05:13;;;;;;;16.85;11.35;;;17.00;94.30;;;;;;5051033;28;20044;-47
2021/06/29 01:07:40;;;;;;;17.95;11.25;;;17.20;94.10;;;;;;5042765;28;20037;-50
2021/06/29 01:10:08;;;;;;;21.35;11.05;;;17.20;94.00;;;;;;5067245;28;20045;-51
2021/06/29 01:12:36;;;;;;;21.52;11.48;;;17.20;94.10;;;;;;5028502;28;20515;-48
2021/06/29 01:15:03;;;;;;;17.52;10.70;;;17.10;94.10;;;;;;5055677;28;20053;-50
2021/06/29 01:17:29;;;;;;;18.67;11.48;;;17.10;94.00;;;;;;5054018;28;20060;-51
2021/06/29 01:19:55;;;;;;;18.00;10.57;;;17.10;94.00;;;;;;5039247;28;20053;-48
2021/06/29 01:22:23;;;;;;;18.67;10.80;;;17.10;94.00;;;;;;5036588;28;20055;-50
2021/06/29 01:24:54;;;;;;;19.88;11.23;;;17.00;94.00;;;;;;5046662;28;20086;-52
2021/06/29 01:32:24;;;;;;;20.85;10.65;;;17.00;94.00;;;;;;5044350;28;20041;-46
2021/06/29 01:34:51;;;;;;;24.38;11.05;;;17.00;94.10;;;;;;5038829;28;20060;-52
2021/06/29 01:37:18;;;;;;;21.70;10.73;;;17.00;94.00;;;;;;5039357;28;20089;-49
2021/06/29 01:40:07;;;;;;;21.42;11.05;;;17.00;94.00;;;;;;5036400;28;20045;-50
2021/06/29 01:42:33;;;;;;;22.25;10.75;;;16.90;94.00;;;;;;5039194;28;20037;-48
2021/06/29 01:44:59;;;;;;;26.58;11.55;;;16.90;94.00;;;;;;5050297;28;20053;-49
2021/06/29 01:47:28;;;;;;;22.77;11.50;;;16.90;94.00;;;;;;5052738;28;20036;-46
2021/06/29 01:49:54;;;;;;;21.08;11.88;;;16.90;94.00;;;;;;5050399;28;20039;-49
2021/06/29 01:52:20;;;;;;;19.25;10.80;;;16.90;94.00;;;;;;5052152;28;20115;-50
2021/06/29 01:54:46;;;;;;;19.95;11.32;;;16.90;94.00;;;;;;5054161;28;20068;-47
2021/06/29 01:57:16;;;;;;;22.73;11.75;;;16.80;94.00;;;;;;5051892;28;20465;-47
2021/06/29 01:59:45;;;;;;;25.25;11.88;;;16.80;94.00;;;;;;5051065;28;20405;-51
2021/06/29 02:02:12;;;;;;;20.73;12.27;;;16.80;94.00;;;;;;5051765;28;20048;-52
2021/06/29 02:04:37;;;;;;;26.05;12.65;;;16.80;94.00;;;;;;5049855;28;20033;-49
2021/06/29 02:07:04;;;;;;;25.27;12.55;;;16.80;94.00;;;;;;5048787;28;20045;-49
2021/06/29 02:09:30;;;;;;;20.33;11.48;;;16.80;94.10;;;;;;5027787;28;20064;-48
2021/06/29 02:11:56;;;;;;;19.75;11.32;;;16.80;94.00;;;;;;5050100;28;20029;-50
2021/06/29 02:14:22;;;;;;;22.40;11.15;;;16.80;94.10;;;;;;5039554;28;20051;-49
2021/06/29 02:16:48;;;;;;;23.25;11.35;;;16.80;94.00;;;;;;5049355;28;20037;-50
2021/06/29 02:19:15;;;;;;;22.13;11.90;;;16.70;94.00;;;;;;5039608;28;20036;-49
2021/06/29 02:21:41;;;;;;;25.45;12.25;;;16.70;94.10;;;;;;5038278;28;20046;-47
2021/06/29 02:24:07;;;;;;;22.00;11.57;;;16.80;94.10;;;;;;5042679;28;20025;-49
2021/06/29 02:26:33;;;;;;;19.33;11.82;;;16.70;94.20;;;;;;5039044;28;20038;-48
2021/06/29 02:28:58;;;;;;;22.15;11.45;;;16.70;94.10;;;;;;5053390;28;20041;-47
2021/06/29 02:31:24;;;;;;;21.67;11.27;;;16.70;94.20;;;;;;5043997;28;20045;-48
2021/06/29 02:33:50;;;;;;;25.42;11.40;;;16.70;94.10;;;;;;5045223;28;20033;-48
2021/06/29 02:36:16;;;;;;;20.83;11.57;;;16.70;94.10;;;;;;5051673;28;20041;-51
2021/06/29 02:38:41;;;;;;;24.10;11.93;;;16.70;94.10;;;;;;5037877;28;20041;-51
2021/06/29 02:41:10;;;;;;;24.05;11.13;;;16.70;94.10;;;;;;5048071;28;20041;-47
2021/06/29 02:43:38;;;;;;;24.85;11.55;;;16.70;94.20;;;;;;5044292;28;20033;-48
2021/06/29 02:46:03;;;;;;;20.00;11.93;;;16.70;94.20;;;;;;5046549;28;20045;-50
2021/06/29 02:48:30;;;;;;;18.80;11.23;;;16.70;94.20;;;;;;5041966;28;20505;-52
2021/06/29 02:50:56;;;;;;;22.10;12.68;;;16.70;94.20;;;;;;5027060;28;20132;-49
2021/06/29 02:53:21;;;;;;;25.70;11.35;;;16.60;94.30;;;;;;5044837;28;20104;-51
2021/06/29 02:55:47;;;;;;;24.95;12.50;;;16.60;94.30;;;;;;5050758;28;20132;-48
2021/06/29 02:58:13;;;;;;;25.75;11.65;;;16.60;94.30;;;;;;5036404;28;20456;-50
2021/06/29 03:00:39;;;;;;;22.58;11.57;;;16.60;94.30;;;;;;5041251;28;20551;-52
2021/06/29 03:03:04;;;;;;;25.17;12.13;;;16.60;94.30;;;;;;5023257;28;20038;-51
2021/06/29 03:05:30;;;;;;;22.98;11.88;;;16.60;94.40;;;;;;5044068;28;20505;-50
2021/06/29 03:07:57;;;;;;;25.25;12.20;;;16.60;94.40;;;;;;5042903;28;20405;-51
2021/06/29 03:10:23;;;;;;;21.73;11.20;;;16.50;94.30;;;;;;5046733;28;20374;-49
2021/06/29 03:12:48;;;;;;;24.35;11.80;;;16.50;94.40;;;;;;5063463;28;20037;-51
2021/06/29 03:15:16;;;;;;;24.02;12.02;;;16.50;94.30;;;;;;5052968;28;20045;-52
2021/06/29 03:17:42;;;;;;;18.45;11.60;;;16.50;94.40;;;;;;5047834;28;20053;-48
2021/06/29 03:20:11;;;;;;;25.90;11.98;;;16.50;94.40;;;;;;5044798;28;20440;-49
2021/06/29 03:22:39;;;;;;;22.60;11.35;;;16.50;94.50;;;;;;5053219;28;20151;-52
2021/06/29 03:25:05;;;;;;;21.42;11.40;;;16.40;94.50;;;;;;5050681;28;20049;-52
2021/06/29 03:27:31;;;;;;;22.55;11.25;;;16.40;94.50;;;;;;5047138;28;20064;-51
2021/06/29 03:29:57;;;;;;;30.95;11.18;;;16.40;94.40;;;;;;5045213;28;20110;-52
2021/06/29 03:32:25;;;;;;;25.48;11.80;;;16.40;94.40;;;;;;5060974;28;20047;-50
2021/06/29 03:34:52;;;;;;;23.92;12.20;;;16.40;94.50;;;;;;5058038;28;20053;-51
2021/06/29 03:37:18;;;;;;;21.55;11.32;;;16.30;94.50;;;;;;5050702;28;20048;-51
2021/06/29 03:39:44;;;;;;;25.13;11.50;;;16.30;94.50;;;;;;5053469;28;20051;-47
2021/06/29 03:42:10;;;;;;;18.92;11.13;;;16.30;94.50;;;;;;5040473;28;20041;-48
2021/06/29 03:44:36;;;;;;;23.55;11.48;;;16.30;94.60;;;;;;5052736;28;20047;-52
2021/06/29 03:47:02;;;;;;;21.70;11.15;;;16.30;94.60;;;;;;5045136;28;20109;-50
2021/06/29 03:49:28;;;;;;;21.13;11.38;;;16.40;94.60;;;;;;5049889;28;20048;-49
2021/06/29 03:52:01;;;;;;;27.58;11.52;;;16.40;94.70;;;;;;5053749;28;20037;-49
2021/06/29 03:54:26;;;;;;;23.23;10.68;;;16.30;94.60;;;;;;5054271;28;20045;-48
2021/06/29 03:56:52;;;;;;;20.05;10.63;;;16.30;94.60;;;;;;5054056;28;20033;-49
2021/06/29 03:59:18;;;;;;;21.45;11.18;;;16.30;94.60;;;;;;5043800;28;20065;-49
2021/06/29 04:01:46;;;;;;;22.23;11.10;;;16.30;94.60;;;;;;5042255;28;20075;-48
2021/06/29 04:04:11;;;;;;;18.27;9.70;;;16.30;94.60;;;;;;5043950;28;20037;-47
2021/06/29 04:06:43;;;;;;;23.13;10.18;;;16.30;94.60;;;;;;5040562;28;20064;-47
2021/06/29 04:09:09;;;;;;;17.33;10.13;;;16.30;94.60;;;;;;5054334;28;20509;-49
2021/06/29 04:11:43;;;;;;;25.67;10.93;;;16.30;94.60;;;;;;5036174;28;20048;-48
2021/06/29 04:14:09;;;;;;;22.42;10.63;;;16.30;94.60;;;;;;5053173;28;20041;-50
2021/06/29 04:16:35;;;;;;;23.88;10.20;;;16.30;94.60;;;;;;5052860;28;20064;-49
2021/06/29 04:19:01;;;;;;;18.60;11.02;;;16.30;94.60;;;;;;5036714;28;20048;-48
2021/06/29 04:21:28;;;;;;;21.30;10.60;;;16.30;94.60;;;;;;5037094;28;20056;-49
2021/06/29 04:23:56;;;;;;;29.27;11.82;;;16.30;94.70;;;;;;5050837;28;20037;-48
2021/06/29 04:26:22;;;;;;;19.73;11.15;;;16.30;94.70;;;;;;5034656;28;20547;-49
2021/06/29 04:28:49;;;;;;;25.65;12.07;;;16.30;94.80;;;;;;5026685;28;20142;-51
2021/06/29 04:31:17;;;;;;;20.98;11.15;;;16.40;94.90;;;;;;5045380;28;20094;-49
2021/06/29 04:33:43;;;;;;;21.23;11.13;;;16.30;94.80;;;;;;5041585;28;20512;-50
2021/06/29 04:36:08;;;;;;;23.67;10.85;;;16.30;94.80;;;;;;5045385;28;20037;-50
2021/06/29 04:38:34;;;;;;;26.35;10.52;;;16.30;94.90;;;;;;5033654;28;20202;-48
2021/06/29 04:41:00;;;;;;;20.45;10.82;;;16.30;94.80;;;;;;5033357;28;20066;-49
2021/06/29 04:43:27;;;;;;;26.15;10.80;;;16.30;94.80;;;;;;5022294;28;20053;-50
2021/06/29 04:45:53;;;;;;;26.58;10.43;;;16.30;94.80;;;;;;5030575;28;20053;-49
2021/06/29 04:48:19;;;;;;;23.23;10.75;;;16.30;94.90;;;;;;5041885;28;20055;-51
2021/06/29 04:50:46;;;;;;;23.55;10.13;;;16.30;94.90;;;;;;5034897;28;20045;-51
2021/06/29 04:53:12;;;;;;;23.45;10.05;;;16.30;94.80;;;;;;5043969;28;20175;-50
2021/06/29 04:55:37;;;;;;;21.33;9.77;;;16.30;94.90;;;;;;5040354;28;20068;-49
2021/06/29 04:58:03;;;;;;;25.42;10.38;;;16.30;94.90;;;;;;5048334;28;20166;-51
2021/06/29 05:00:31;;;;;;;18.23;9.32;;;16.30;94.90;;;;;;5041405;28;20037;-48
2021/06/29 05:02:57;;;;;;;23.67;10.77;;;16.20;94.80;;;;;;5050365;28;20056;-49
2021/06/29 05:05:23;;;;;;;28.90;11.10;;;16.30;94.90;;;;;;5014677;28;20413;-49
2021/06/29 05:07:49;;;;;;;34.63;11.10;;;16.20;94.90;;;;;;5040233;28;20040;-49
2021/06/29 05:10:15;;;;;;;19.52;9.70;;;16.30;95.00;;;;;;5036927;28;20065;-48
2021/06/29 05:12:41;;;;;;;26.90;10.77;;;16.30;95.00;;;;;;5032760;28;20053;-49
2021/06/29 05:15:09;;;;;;;28.92;10.93;;;16.30;95.10;;;;;;5015521;28;20417;-48
2021/06/29 05:17:35;;;;;;;27.88;11.18;;;16.30;95.10;;;;;;5046556;28;20033;-48
2021/06/29 05:20:04;;;;;;;37.13;12.32;;;16.40;95.10;;;;;;5043673;28;20429;-48
2021/06/29 05:22:31;;;;;;;29.63;11.40;;;16.40;95.00;;;;;;5044188;28;20040;-48
2021/06/29 05:24:58;;;;;;;30.77;11.52;;;16.30;95.10;;;;;;5047484;28;20049;-49
2021/06/29 05:27:25;;;;;;;33.22;12.57;;;16.40;95.20;;;;;;5031849;28;20047;-48
2021/06/29 05:29:50;;;;;;;33.90;12.25;;;16.40;95.20;;;;;;5043658;28;20164;-49
2021/06/29 05:32:16;;;;;;;31.73;11.90;;;16.40;95.10;;;;;;5030738;28;20038;-52
2021/06/29 05:34:42;;;;;;;30.67;12.30;;;16.50;95.20;;;;;;5040921;28;20493;-49
2021/06/29 05:37:08;;;;;;;30.67;11.38;;;16.50;95.10;;;;;;5052020;28;20044;-46
2021/06/29 05:39:34;;;;;;;33.95;11.77;;;16.50;95.20;;;;;;5033683;28;20105;-49
2021/06/29 05:42:00;;;;;;;31.85;11.57;;;16.40;95.20;;;;;;5032084;28;20064;-50
2021/06/29 05:44:26;;;;;;;39.47;12.00;;;16.60;95.10;;;;;;5045945;28;20068;-49
2021/06/29 05:46:54;;;;;;;32.55;12.63;;;16.60;95.20;;;;;;5018385;28;20079;-51
2021/06/29 05:49:19;;;;;;;35.13;12.27;;;16.60;95.30;;;;;;5045065;28;20045;-47
2021/06/29 05:51:47;;;;;;;28.35;12.23;;;16.70;95.20;;;;;;5029076;28;20056;-48
2021/06/29 05:54:14;;;;;;;27.15;11.70;;;16.60;95.10;;;;;;5032733;28;20049;-50
2021/06/29 05:56:41;;;;;;;31.35;12.20;;;16.70;95.20;;;;;;5045466;28;20049;-51
2021/06/29 05:59:08;;;;;;;29.63;12.95;;;16.70;95.20;;;;;;5036705;28;20037;-50
2021/06/29 06:01:35;;;;;;;30.33;12.27;;;16.70;95.20;;;;;;5048380;28;20051;-48
2021/06/29 06:04:01;;;;;;;32.28;13.18;;;16.70;95.20;;;;;;5042634;28;20116;-52
2021/06/29 06:06:33;;;;;;;28.90;12.98;;;16.80;95.50;;;;;;5037497;28;20040;-47
2021/06/29 06:08:59;;;;;;;34.00;13.52;;;16.80;95.30;;;;;;5047570;28;20099;-51
2021/06/29 06:11:24;;;;;;;37.03;13.95;;;16.80;95.30;;;;;;5006334;28;20471;-49
2021/06/29 06:13:50;;;;;;;31.92;13.02;;;16.80;95.20;;;;;;5055944;28;20041;-48
2021/06/29 06:16:16;;;;;;;31.65;13.68;;;16.70;95.30;;;;;;5045240;28;20050;-48
2021/06/29 06:18:43;;;;;;;31.42;13.93;;;16.80;95.40;;;;;;5045219;28;20553;-51
2021/06/29 06:21:09;;;;;;;37.83;14.65;;;16.80;95.30;;;;;;5029430;28;20442;-48
2021/06/29 06:23:35;;;;;;;35.13;14.05;;;16.80;95.30;;;;;;5042345;28;20406;-49
2021/06/29 06:26:01;;;;;;;38.60;15.07;;;16.90;95.40;;;;;;5038323;28;20048;-48
2021/06/29 06:28:27;;;;;;;32.83;13.88;;;16.90;95.40;;;;;;5037155;28;20057;-49
2021/06/29 06:30:53;;;;;;;25.35;13.10;;;16.80;95.30;;;;;;5051297;28;20053;-48
2021/06/29 06:33:22;;;;;;;35.90;14.40;;;16.90;95.40;;;;;;5035953;28;20474;-51
2021/06/29 06:35:49;;;;;;;30.25;13.63;;;16.90;95.40;;;;;;5048754;28;20041;-49
2021/06/29 06:38:15;;;;;;;30.90;13.57;;;16.90;95.40;;;;;;5031907;28;20049;-48
2021/06/29 06:40:46;;;;;;;36.50;13.88;;;16.90;95.40;;;;;;5035695;28;20103;-47
2021/06/29 06:43:12;;;;;;;34.53;15.18;;;17.00;95.20;;;;;;5043816;28;20045;-50
2021/06/29 06:45:38;;;;;;;33.28;14.10;;;17.00;94.90;;;;;;5039020;28;20076;-49
2021/06/29 06:48:05;;;;;;;40.92;14.43;;;17.00;95.00;;;;;;5035827;28;20571;-47
2021/06/29 06:50:31;;;;;;;40.70;15.57;;;16.90;95.40;;;;;;5034697;28;20047;-51
2021/06/29 06:52:58;;;;;;;33.67;14.90;;;17.00;95.40;;;;;;5036787;28;20053;-48
2021/06/29 06:55:27;;;;;;;36.25;15.50;;;17.00;95.50;;;;;;5036376;28;20523;-49
2021/06/29 06:57:56;;;;;;;37.33;14.82;;;17.00;95.30;;;;;;5036587;28;20041;-48
2021/06/29 07:00:24;;;;;;;35.67;15.15;;;17.00;95.40;;;;;;5035353;28;20037;-51
2021/06/29 07:02:51;;;;;;;37.35;14.88;;;17.00;95.60;;;;;;5036489;28;20191;-50
2021/06/29 07:05:17;;;;;;;36.03;14.98;;;17.00;95.50;;;;;;5037387;28;20559;-50
2021/06/29 07:07:43;;;;;;;35.03;14.65;;;17.00;95.60;;;;;;5035850;28;20061;-49
2021/06/29 07:10:09;;;;;;;34.88;15.38;;;17.00;95.50;;;;;;5036770;28;20175;-48
2021/06/29 07:12:37;;;;;;;39.88;15.13;;;17.10;95.60;;;;;;5043419;28;20413;-48
2021/06/29 07:15:04;;;;;;;36.58;14.77;;;17.10;95.60;;;;;;5037070;28;20045;-49
2021/06/29 07:17:32;;;;;;;39.78;15.88;;;17.20;95.60;;;;;;5044704;28;20490;-49
2021/06/29 07:19:58;;;;;;;42.47;16.67;;;17.20;95.50;;;;;;5045308;28;20371;-47
2021/06/29 07:22:24;;;;;;;41.15;15.88;;;17.20;95.60;;;;;;5039158;28;20037;-46
2021/06/29 07:24:51;;;;;;;41.08;17.02;;;17.30;95.70;;;;;;5034720;28;20100;-48
2021/06/29 07:27:17;;;;;;;35.63;15.20;;;17.30;95.70;;;;;;5046031;28;20045;-50
2021/06/29 07:29:43;;;;;;;33.80;16.65;;;17.50;95.40;;;;;;5043910;28;20123;-49
2021/06/29 07:32:09;;;;;;;35.33;16.02;;;17.50;95.10;;;;;;5040907;28;20037;-52
2021/06/29 07:34:35;;;;;;;36.70;16.20;;;17.40;95.20;;;;;;5035611;28;20309;-49
2021/06/29 07:37:01;;;;;;;38.13;16.08;;;17.40;95.50;;;;;;5052665;28;20479;-51
2021/06/29 07:39:26;;;;;;;40.42;16.75;;;17.40;95.30;;;;;;5036378;28;20129;-48
2021/06/29 07:41:52;;;;;;;39.78;17.15;;;17.50;95.20;;;;;;5044662;28;20083;-47
2021/06/29 07:44:18;;;;;;;40.33;16.88;;;17.50;95.20;;;;;;5051861;28;20048;-47
2021/06/29 07:46:44;;;;;;;38.63;16.33;;;17.50;95.00;;;;;;5043683;28;20416;-47
2021/06/29 07:49:10;;;;;;;44.28;17.42;;;17.40;95.20;;;;;;5058194;28;20041;-46
2021/06/29 07:51:36;;;;;;;49.47;17.05;;;17.40;95.30;;;;;;5051901;28;20059;-48
2021/06/29 07:54:02;;;;;;;38.25;16.95;;;17.50;95.30;;;;;;5041447;28;20108;-49
2021/06/29 07:56:29;;;;;;;43.47;17.45;;;17.50;95.40;;;;;;5005805;28;20053;-49
2021/06/29 07:58:55;;;;;;;36.65;16.23;;;17.50;95.50;;;;;;5039053;28;20068;-49
2021/06/29 08:01:21;;;;;;;35.33;15.55;;;17.50;95.50;;;;;;5037080;28;20028;-49
2021/06/29 08:03:47;;;;;;;41.60;16.80;;;17.60;95.40;;;;;;5031965;28;20034;-47
2021/06/29 08:06:14;;;;;;;44.85;16.88;;;17.60;95.30;;;;;;5038652;28;20189;-52
2021/06/29 08:08:39;;;;;;;37.50;17.02;;;17.60;95.30;;;;;;5038710;28;20037;-49
2021/06/29 08:11:08;;;;;;;44.30;18.08;;;17.60;95.40;;;;;;5035167;28;20382;-49
2021/06/29 08:13:35;;;;;;;34.30;16.63;;;17.60;95.50;;;;;;5033398;28;20041;-49
2021/06/29 08:16:01;;;;;;;39.03;16.52;;;17.70;95.30;;;;;;5040127;28;20148;-51
2021/06/29 08:18:29;;;;;;;47.90;18.85;;;17.70;95.40;;;;;;5037228;28;20553;-48
2021/06/29 08:20:58;;;;;;;45.15;17.05;;;17.70;95.40;;;;;;5032316;28;20049;-49
2021/06/29 08:23:26;;;;;;;34.17;16.90;;;17.70;95.40;;;;;;5040958;28;20041;-48
2021/06/29 08:25:52;;;;;;;41.70;17.77;;;17.70;95.30;;;;;;5034048;28;20037;-52
2021/06/29 08:28:18;;;;;;;42.42;16.83;;;17.70;95.40;;;;;;5044344;28;20045;-50
2021/06/29 08:30:44;;;;;;;38.35;17.80;;;17.70;95.40;;;;;;5044943;28;20465;-49
2021/06/29 08:33:13;;;;;;;48.70;18.90;;;17.70;95.50;;;;;;5051438;28;20199;-50
2021/06/29 08:35:41;;;;;;;52.78;19.55;;;17.80;95.60;;;;;;5049310;28;20074;-51
2021/06/29 08:38:07;;;;;;;44.17;18.08;;;17.80;95.50;;;;;;5042067;28;20473;-51
2021/06/29 08:40:37;;;;;;;41.03;18.17;;;17.80;95.50;;;;;;5046581;28;20037;-52
2021/06/29 08:43:07;;;;;;;43.50;17.35;;;17.80;95.50;;;;;;5050010;28;20490;-49
2021/06/29 08:45:33;;;;;;;41.28;18.65;;;17.80;95.40;;;;;;5032475;28;20044;-48
2021/06/29 08:48:01;;;;;;;43.72;17.27;;;17.80;95.40;;;;;;5042649;28;20120;-49
2021/06/29 08:50:30;;;;;;;42.47;18.00;;;17.90;95.40;;;;;;5034921;28;20107;-50
2021/06/29 08:52:59;;;;;;;42.22;18.52;;;17.90;95.50;;;;;;5052085;28;20079;-52
2021/06/29 08:55:28;;;;;;;38.67;17.50;;;17.90;95.50;;;;;;5046934;28;20079;-48
2021/06/29 08:57:54;;;;;;;46.33;18.42;;;18.00;95.40;;;;;;5046712;28;20045;-48
2021/06/29 09:00:21;;;;;;;45.40;17.48;;;18.00;95.60;;;;;;5051714;28;20044;-51
2021/06/29 09:02:47;;;;;;;43.97;20.20;;;18.10;95.30;;;;;;5053975;28;20053;-52
2021/06/29 09:05:27;;;;;;;48.88;18.25;;;18.10;95.30;;;;;;5052540;28;20040;-50
2021/06/29 09:08:10;;;;;;;44.42;18.83;;;18.10;95.30;;;;;;5050384;28;20044;-47
2021/06/29 09:11:02;;;;;;;41.05;18.38;;;18.20;95.50;;;;;;5052524;28;20040;-52
2021/06/29 09:13:27;;;;;;;36.05;18.08;;;18.20;95.20;;;;;;5049262;28;20041;-49
2021/06/29 09:15:53;;;;;;;43.58;19.05;;;18.20;95.10;;;;;;5037184;28;20107;-49
2021/06/29 09:18:26;;;;;;;40.78;18.80;;;18.20;95.10;;;;;;5033872;28;20402;-50
2021/06/29 09:20:53;;;;;;;43.78;18.63;;;18.20;95.10;;;;;;5042446;28;20041;-52
2021/06/29 09:23:28;;;;;;;36.47;18.35;;;18.30;95.00;;;;;;5048561;28;20029;-47
2021/06/29 09:26:08;;;;;;;40.13;19.55;;;18.30;95.00;;;;;;5054039;28;20043;-48
2021/06/29 09:28:40;;;;;;;41.95;20.77;;;18.30;95.00;;;;;;5051143;28;20068;-48
2021/06/29 09:31:08;;;;;;;44.92;23.80;;;18.30;95.00;;;;;;5058655;28;20150;-48
2021/06/29 09:33:37;;;;;;;50.33;23.92;;;18.30;95.10;;;;;;5044386;28;20071;-50
2021/06/29 09:36:05;;;;;;;44.53;23.23;;;18.30;95.10;;;;;;5041927;28;20049;-49
2021/06/29 09:38:35;;;;;;;46.92;24.42;;;18.30;95.10;;;;;;5039459;28;20046;-48
2021/06/29 09:41:05;;;;;;;45.42;24.23;;;18.30;95.20;;;;;;5047270;28;20032;-48
2021/06/29 09:43:37;;;;;;;42.75;23.52;;;18.30;95.10;;;;;;5052220;28;20417;-48
2021/06/29 09:46:11;;;;;;;43.50;21.83;;;18.30;95.10;;;;;;5050228;28;20497;-50
2021/06/29 09:48:46;;;;;;;43.70;23.27;;;18.30;95.00;;;;;;5057767;28;20045;-47
2021/06/29 09:51:15;;;;;;;40.40;20.65;;;18.30;95.00;;;;;;5038307;28;20072;-50
2021/06/29 09:53:43;;;;;;;47.20;22.45;;;18.40;95.10;;;;;;5051429;28;20059;-48
2021/06/29 09:56:15;;;;;;;44.35;23.10;;;18.30;95.00;;;;;;5049399;28;20672;-49
2021/06/29 09:58:42;;;;;;;;;;;18.30;95.00;;;;;;5060097;28;20083;-51
2021/06/29 10:01:08;;;;;;;43.42;21.08;;;18.30;95.00;;;;;;5051110;28;19935;-50
2021/06/29 10:03:39;;;;;;;44.33;20.45;;;18.30;95.00;;;;;;5047293;28;20040;-47
2021/06/29 10:06:16;;;;;;;43.67;20.25;;;18.30;95.00;;;;;;5055306;28;20090;-49
2021/06/29 10:08:48;;;;;;;42.83;21.27;;;18.40;95.10;;;;;;5036754;28;20102;-48
2021/06/29 10:11:26;;;;;;;44.03;22.05;;;18.40;95.10;;;;;;5051295;28;20508;-48
2021/06/29 10:14:00;;;;;;;49.83;20.77;;;18.40;95.10;;;;;;5017564;28;20047;-48
2021/06/29 10:16:33;;;;;;;50.03;20.38;;;18.30;95.00;;;;;;5045281;28;20440;-52
2021/06/29 10:19:04;;;;;;;58.28;23.30;;;18.30;95.10;;;;;;5036620;28;20447;-50
2021/06/29 10:21:34;;;;;;;53.00;24.20;;;18.30;95.10;;;;;;5052078;28;20762;-51
2021/06/29 10:24:09;;;;;;;53.65;27.65;;;18.20;95.20;;;;;;5053660;28;20033;-49
2021/06/29 10:26:39;;;;;;;56.42;27.08;;;18.30;95.20;;;;;;5049472;28;20083;-51
2021/06/29 10:29:08;;;;;;;62.13;28.02;;;18.30;95.20;;;;;;5056981;28;20073;-51
2021/06/29 10:31:36;;;;;;;60.83;25.40;;;18.30;95.20;;;;;;5045928;28;20041;-49
2021/06/29 10:34:04;;;;;;;59.25;24.42;;;18.20;95.20;;;;;;5057169;28;20040;-49
2021/06/29 10:36:31;;;;;;;50.45;21.80;;;18.20;95.30;;;;;;5052144;28;20044;-49
2021/06/29 10:38:58;;;;;;;54.55;23.17;;;18.20;95.30;;;;;;5053759;28;20097;-52
2021/06/29 10:41:34;;;;;;;56.75;22.05;;;18.30;95.40;;;;;;5033290;28;20061;-49
2021/06/29 10:44:08;;;;;;;49.80;20.95;;;18.30;95.30;;;;;;5030199;28;20401;-51
2021/06/29 10:46:46;;;;;;;49.70;21.77;;;18.30;95.30;;;;;;5039828;28;20069;-49
2021/06/29 10:49:39;;;;;;;48.63;21.63;;;18.40;95.30;;;;;;5068900;28;20036;-50
2021/06/29 10:52:25;;;;;;;50.50;21.45;;;18.40;95.30;;;;;;5043877;28;20051;-49
2021/06/29 10:54:55;;;;;;;52.63;23.23;;;18.40;95.30;;;;;;5065297;28;20060;-50
2021/06/29 10:57:44;;;;;;;48.13;23.10;;;18.40;95.30;;;;;;5074768;28;20064;-50
2021/06/29 11:00:15;;;;;;;49.67;21.95;;;18.40;95.30;;;;;;5046609;28;20048;-50
2021/06/29 11:02:42;;;;;;;49.20;21.50;;;18.40;95.20;;;;;;5073902;28;20053;-49
2021/06/29 11:05:10;;;;;;;50.17;22.05;;;18.40;95.10;;;;;;5052153;28;20409;-53
2021/06/29 11:07:41;;;;;;;47.20;23.17;;;18.40;95.20;;;;;;5054500;28;20072;-49
2021/06/29 11:10:25;;;;;;;50.75;22.25;;;18.40;95.30;;;;;;5054444;28;20421;-47
2021/06/29 11:12:53;;;;;;;52.40;21.35;;;18.30;95.40;;;;;;5054388;28;20047;-47
2021/06/29 11:15:39;;;;;;;52.97;21.88;;;18.30;95.40;;;;;;5050176;28;20040;-51
2021/06/29 11:18:06;;;;;;;47.53;21.60;;;18.30;95.30;;;;;;5051973;28;20047;-48
2021/06/29 11:20:58;;;;;;;50.22;22.15;;;18.30;95.30;;;;;;5032226;28;20079;-47
2021/06/29 11:23:30;;;;;;;41.80;20.88;;;18.20;95.30;;;;;;5048565;28;20044;-49
2021/06/29 11:26:00;;;;;;;51.15;21.75;;;18.30;95.40;;;;;;5051074;28;20037;-51
2021/06/29 11:28:34;;;;;;;49.92;22.75;;;18.30;95.30;;;;;;5049606;28;20056;-50
2021/06/29 11:31:01;;;;;;;48.38;22.23;;;18.30;95.40;;;;;;5053119;28;20036;-47
2021/06/29 11:33:45;;;;;;;46.20;22.30;;;18.20;95.40;;;;;;5049425;28;20523;-47
2021/06/29 11:36:23;;;;;;;45.70;22.75;;;18.20;95.40;;;;;;5052364;28;20060;-47
2021/06/29 11:39:10;;;;;;;48.53;22.63;;;18.30;95.40;;;;;;5048158;28;20049;-49
2021/06/29 11:41:37;;;;;;;43.55;22.25;;;18.30;95.30;;;;;;5037230;28;20595;-48
2021/06/29 11:44:06;;;;;;;44.20;22.20;;;18.30;95.30;;;;;;5051980;28;20041;-52
2021/06/29 11:47:02;;;;;;;47.92;22.75;;;18.30;95.30;;;;;;5038378;28;20033;-48
2021/06/29 11:49:31;;;;;;;41.80;21.75;;;18.40;95.30;;;;;;5053990;28;20049;-48
2021/06/29 11:52:17;;;;;;;42.45;21.42;;;18.40;95.30;;;;;;5053812;28;20131;-52
2021/06/29 11:54:52;;;;;;;41.03;21.55;;;18.50;95.10;;;;;;5051140;28;20049;-51
2021/06/29 11:57:29;;;;;;;38.13;20.95;;;18.60;95.00;;;;;;5053466;28;20053;-51
2021/06/29 12:00:20;;;;;;;41.10;22.42;;;18.60;94.80;;;;;;5053417;28;20044;-53
2021/06/29 12:02:48;;;;;;;42.97;21.10;;;18.70;94.70;;;;;;5046017;28;20048;-49
2021/06/29 12:05:18;;;;;;;40.65;21.40;;;18.70;94.50;;;;;;5050058;28;20041;-49
2021/06/29 12:07:54;;;;;;;43.05;21.25;;;18.70;94.40;;;;;;5053343;28;20033;-52
2021/06/29 12:10:33;;;;;;;39.80;22.05;;;18.70;94.20;;;;;;5052417;28;20041;-49
2021/06/29 12:13:00;;;;;;;34.65;20.67;;;18.70;94.20;;;;;;5053556;28;20149;-50
2021/06/29 12:15:29;;;;;;;39.97;21.58;;;18.60;94.30;;;;;;5037538;28;20041;-50
2021/06/29 12:18:07;;;;;;;39.90;21.77;;;18.60;94.20;;;;;;5051966;28;20094;-49
2021/06/29 12:20:58;;;;;;;42.03;21.35;;;18.60;94.20;;;;;;5051181;28;20040;-50
2021/06/29 12:23:26;;;;;;;45.70;22.25;;;18.60;94.30;;;;;;5030625;28;20504;-49
2021/06/29 12:25:55;;;;;;;46.50;22.42;;;18.60;94.40;;;;;;5062713;28;20151;-47
2021/06/29 12:28:27;;;;;;;46.70;22.38;;;18.60;94.40;;;;;;5065426;28;20396;-49
2021/06/29 12:31:05;;;;;;;43.03;22.75;;;18.60;94.40;;;;;;5051235;28;20047;-52
2021/06/29 12:33:36;;;;;;;40.97;21.23;;;18.70;94.40;;;;;;5046536;28;20052;-50
2021/06/29 12:36:21;;;;;;;42.05;21.10;;;18.60;94.40;;;;;;5032736;28;20045;-51
2021/06/29 12:38:54;;;;;;;43.78;22.35;;;18.60;94.60;;;;;;5048996;28;20131;-47
2021/06/29 12:41:25;;;;;;;44.20;23.08;;;18.60;94.40;;;;;;5042839;28;20063;-52